Time;durP1;ratioP1;P1;durP2;ratioP2;P2;SDS_P1;SDS_P2;PMS_P1;PMS_P2;Temp;Humidity;BMP_temperature;BMP_pressure;BME280_temperature;BME280_humidity;BME280_pressure;Samples;Min_cycle;Max_cycle;Signal;HPM_P1;HPM_P2
2021/10/05 00:00:07;;;;;;;1.77;1.67;;;;;;;14.12;68.67;100971.25;10478576;28;20060;-81
2021/10/05 00:05:08;;;;;;;3.20;2.45;;;;;;;14.41;68.28;101007.94;10497085;28;20036;-81
2021/10/05 00:10:09;;;;;;;2.40;2.20;;;;;;;14.16;68.37;100999.72;10497447;28;20037;-81
2021/10/05 00:15:10;;;;;;;7.20;2.67;;;;;;;14.18;69.19;100991.34;10497393;28;20037;-81
2021/10/05 00:20:11;;;;;;;5.85;2.50;;;;;;;14.32;68.99;100992.09;10479590;28;20040;-82
2021/10/05 00:25:12;;;;;;;4.32;1.77;;;;;;;13.87;68.68;100929.53;10497296;28;20063;-81
2021/10/05 00:30:12;;;;;;;2.80;1.73;;;;;;;13.86;69.71;100982.31;10486880;28;20424;-81
2021/10/05 00:35:13;;;;;;;3.22;1.73;;;;;;;14.09;69.20;100985.31;10486455;28;20128;-81
2021/10/05 00:40:13;;;;;;;3.03;2.00;;;;;;;14.17;68.54;100979.63;10504393;28;20071;-82
2021/10/05 00:45:13;;;;;;;8.88;2.08;;;;;;;14.04;68.25;100971.53;10470069;28;20447;-81
2021/10/05 00:50:15;;;;;;;1.52;1.42;;;;;;;13.94;69.07;100984.75;10504373;28;20033;-81
2021/10/05 00:55:15;;;;;;;4.43;2.05;;;;;;;13.71;69.72;100988.84;10504046;28;20048;-81
2021/10/05 01:00:16;;;;;;;5.68;2.42;;;;;;;13.95;68.81;100970.94;10484793;28;20392;-81
2021/10/05 01:05:16;;;;;;;3.80;2.47;;;;;;;13.36;69.65;100916.81;10503244;28;20039;-81
2021/10/05 01:10:17;;;;;;;3.85;1.77;;;;;;;13.70;69.41;100961.88;10485578;28;20076;-81
2021/10/05 01:15:19;;;;;;;2.67;2.08;;;;;;;13.25;68.58;100856.59;10502885;28;20493;-81
2021/10/05 01:20:19;;;;;;;2.88;1.80;;;;;;;13.61;68.85;100938.69;10502503;28;20040;-81
2021/10/05 01:25:20;;;;;;;10.07;1.98;;;;;;;13.76;68.49;100931.06;10502838;28;20029;-79
2021/10/05 01:30:21;;;;;;;5.10;1.67;;;;;;;13.73;67.75;100907.84;10483740;28;20089;-81
2021/10/05 01:35:21;;;;;;;4.78;1.42;;;;;;;13.31;68.43;100863.06;10502080;28;20071;-81
2021/10/05 01:40:22;;;;;;;4.05;1.70;;;;;;;13.26;68.76;100885.47;10501764;28;20490;-79
2021/10/05 01:45:22;;;;;;;8.70;1.85;;;;;;;13.37;70.48;100937.50;10501807;28;20052;-80
2021/10/05 01:50:23;;;;;;;10.60;2.25;;;;;;;13.16;70.14;100903.25;10501345;28;20040;-80
2021/10/05 01:55:23;;;;;;;9.20;1.73;;;;;;;13.52;69.01;100910.88;10483844;28;20051;-80
2021/10/05 02:00:24;;;;;;;1.95;1.40;;;;;;;13.44;69.73;100898.38;10500373;28;20460;-80
2021/10/05 02:05:24;;;;;;;2.08;1.45;;;;;;;13.36;68.98;100879.56;10500660;28;20049;-80
2021/10/05 02:10:24;;;;;;;6.32;1.67;;;;;;;13.48;69.12;100879.72;10468077;28;20079;-79
2021/10/05 02:15:25;;;;;;;9.50;2.05;;;;;;;13.30;69.79;100855.13;10504255;28;20119;-79
2021/10/05 02:20:25;;;;;;;3.95;1.83;;;;;;;13.22;69.39;100827.09;10503544;28;20032;-79
2021/10/05 02:25:26;;;;;;;6.10;1.83;;;;;;;13.01;69.50;100794.78;10500487;28;20052;-79
2021/10/05 02:30:26;;;;;;;2.38;1.60;;;;;;;12.98;70.24;100809.63;10499369;28;20049;-79
2021/10/05 02:35:27;;;;;;;5.70;2.35;;;;;;;13.23;69.44;100826.03;10481686;28;20066;-79
2021/10/05 02:40:27;;;;;;;2.58;1.85;;;;;;;13.49;69.01;100816.91;10481742;28;20033;-79
2021/10/05 02:45:28;;;;;;;7.65;1.58;;;;;;;13.15;69.82;100801.84;10499553;28;20060;-78
2021/10/05 02:50:28;;;;;;;2.35;1.83;;;;;;;12.85;70.23;100751.78;10498334;28;20115;-79
2021/10/05 02:55:28;;;;;;;2.10;1.10;;;;;;;12.92;70.46;100741.72;10481523;28;20154;-79
2021/10/05 03:00:29;;;;;;;7.00;1.70;;;;;;;12.92;69.06;100714.53;10498152;28;20024;-78
2021/10/05 03:05:29;;;;;;;4.13;1.48;;;;;;;12.19;69.64;100617.09;10498646;28;20033;-79
2021/10/05 03:10:30;;;;;;;1.55;1.45;;;;;;;13.13;69.86;100746.81;10498264;28;20120;-79
2021/10/05 03:15:31;;;;;;;1.42;1.38;;;;;;;13.00;70.70;100750.44;10498374;28;20029;-79
2021/10/05 03:20:32;;;;;;;3.60;1.63;;;;;;;13.16;69.80;100753.72;10481802;28;20092;-79
2021/10/05 03:25:32;;;;;;;3.58;1.60;;;;;;;13.32;69.36;100738.81;10499000;28;20128;-79
2021/10/05 03:30:32;;;;;;;4.65;2.42;;;;;;;13.14;69.82;100720.47;10498029;28;20059;-79
2021/10/05 03:35:33;;;;;;;2.28;1.23;;;;;;;13.19;68.79;100717.94;10479893;28;20044;-79
2021/10/05 03:40:33;;;;;;;4.28;1.63;;;;;;;13.22;69.85;100706.63;10480283;28;20665;-79
2021/10/05 03:45:34;;;;;;;3.55;1.83;;;;;;;12.99;70.25;100699.03;10498254;28;20061;-79
2021/10/05 03:50:34;;;;;;;2.95;1.60;;;;;;;12.89;70.68;100682.34;10497751;28;20533;-79
2021/10/05 03:55:34;;;;;;;1.95;1.35;;;;;;;12.36;70.28;100565.88;10497528;28;20040;-80
2021/10/05 04:00:35;;;;;;;8.68;2.58;;;;;;;12.97;70.37;100679.38;10496125;28;20029;-80
2021/10/05 04:05:35;;;;;;;14.05;1.77;;;;;;;12.98;70.42;100664.72;10505466;28;20456;-79
2021/10/05 04:10:36;;;;;;;1.50;1.40;;;;;;;13.02;70.76;100660.53;10506701;28;20036;-80
2021/10/05 04:15:36;;;;;;;1.55;1.30;;;;;;;12.94;70.51;100636.34;10471298;28;20043;-79
2021/10/05 04:20:37;;;;;;;5.32;1.35;;;;;;;13.18;70.00;100653.75;10505811;28;20506;-79
2021/10/05 04:25:37;;;;;;;8.55;2.38;;;;;;;13.09;69.91;100642.28;10506018;28;20071;-79
2021/10/05 04:30:38;;;;;;;5.07;1.52;;;;;;;12.90;70.63;100646.00;10504474;28;20040;-80
2021/10/05 04:35:38;;;;;;;2.00;1.42;;;;;;;12.99;70.49;100644.69;10461907;28;20057;-78
2021/10/05 04:40:38;;;;;;;2.00;1.77;;;;;;;12.80;71.70;100624.72;10504655;28;20059;-80
2021/10/05 04:45:39;;;;;;;3.17;1.60;;;;;;;12.98;70.49;100615.81;10505053;28;20381;-80
2021/10/05 04:50:39;;;;;;;1.63;1.52;;;;;;;13.10;69.66;100596.91;10520291;28;20025;-81
2021/10/05 04:55:43;;;;;;;4.30;1.20;;;;;;;12.82;71.54;100625.31;10521416;28;20514;-80
2021/10/05 05:00:43;;;;;;;3.72;1.80;;;;;;;12.89;71.73;100619.84;10503817;28;20090;-79
2021/10/05 05:05:43;;;;;;;1.60;1.45;;;;;;;13.07;71.03;100617.22;10503035;28;20511;-79
2021/10/05 05:10:44;;;;;;;4.90;1.63;;;;;;;12.65;72.90;100572.56;10503149;28;20040;-80
2021/10/05 05:15:44;;;;;;;4.60;1.77;;;;;;;12.91;72.38;100593.28;10500712;28;20123;-78
2021/10/05 05:20:45;;;;;;;2.72;1.50;;;;;;;13.09;70.81;100587.09;10502850;28;20115;-79
2021/10/05 05:25:45;;;;;;;6.68;1.42;;;;;;;12.61;71.72;100531.44;10501519;28;20045;-80
2021/10/05 05:30:45;;;;;;;2.95;1.58;;;;;;;12.67;72.30;100554.19;10500030;28;20040;-80
2021/10/05 05:35:47;;;;;;;2.80;1.67;;;;;;;13.00;71.77;100564.78;10501528;28;20028;-79
2021/10/05 05:40:48;;;;;;;4.80;1.73;;;;;;;12.41;71.63;100468.25;10501894;28;20471;-80
2021/10/05 05:45:48;;;;;;;3.35;2.22;;;;;;;11.48;72.22;100323.16;10502130;28;20087;-80
2021/10/05 05:50:49;;;;;;;2.70;2.25;;;;;;;12.67;71.68;100511.53;10501481;28;20111;-80
2021/10/05 05:55:49;;;;;;;2.10;1.85;;;;;;;12.85;71.25;100520.78;10501559;28;20044;-80
2021/10/05 06:00:50;;;;;;;4.03;1.75;;;;;;;12.62;71.93;100513.25;10502079;28;20024;-80
2021/10/05 06:05:50;;;;;;;6.30;1.90;;;;;;;12.21;72.57;100443.97;10500540;28;20090;-80
2021/10/05 06:10:50;;;;;;;2.72;1.98;;;;;;;13.00;71.49;100529.44;10501447;28;20127;-80
2021/10/05 06:15:51;;;;;;;6.57;1.75;;;;;;;12.70;72.72;100511.09;10501020;28;20033;-80
2021/10/05 06:20:51;;;;;;;6.25;1.80;;;;;;;12.79;71.79;100476.31;10498843;28;20499;-80
2021/10/05 06:25:54;;;;;;;2.70;2.17;;;;;;;13.39;71.33;100509.22;10498243;28;20115;-79
2021/10/05 06:30:55;;;;;;;1.98;1.88;;;;;;;13.54;69.91;100522.47;10499047;28;20056;-81
2021/10/05 06:35:55;;;;;;;6.05;2.28;;;;;;;13.95;69.73;100504.59;10499885;28;20431;-80
2021/10/05 06:40:58;;;;;;;1.85;1.75;;;;;;;14.76;68.01;100486.84;10498642;28;20060;-80
2021/10/05 06:45:58;;;;;;;15.63;4.03;;;;;;;14.97;65.83;100492.81;10498257;28;20056;-81
2021/10/05 06:50:59;;;;;;;2.83;1.73;;;;;;;15.79;64.51;100457.25;10498463;28;20420;-80
2021/10/05 06:55:59;;;;;;;1.85;1.75;;;;;;;15.95;63.42;100472.88;10500136;28;20047;-81
2021/10/05 07:00:59;;;;;;;6.25;2.58;;;;;;;15.85;63.70;100452.72;10497783;28;20142;-81
2021/10/05 07:06:00;;;;;;;5.32;1.77;;;;;;;16.27;63.09;100434.94;10499836;28;20055;-81
2021/10/05 07:11:00;;;;;;;1.45;1.35;;;;;;;16.91;62.33;100411.91;10500806;28;20079;-81
2021/10/05 07:16:01;;;;;;;2.25;1.80;;;;;;;17.25;61.07;100437.28;10499108;28;20039;-81
2021/10/05 07:21:02;;;;;;;5.50;1.27;;;;;;;16.94;61.51;100411.41;10480533;28;20119;-81
2021/10/05 07:26:02;;;;;;;2.05;1.13;;;;;;;16.95;62.55;100355.63;10514119;28;20045;-80
2021/10/05 07:31:02;;;;;;;3.30;1.58;;;;;;;17.85;59.88;100413.69;10497935;28;20052;-80
2021/10/05 07:36:06;;;;;;;3.55;1.80;;;;;;;17.40;60.09;100429.28;10498256;28;20059;-81
2021/10/05 07:41:07;;;;;;;1.30;1.20;;;;;;;17.28;59.78;100383.97;10498027;28;20033;-81
2021/10/05 07:46:08;;;;;;;1.08;1.02;;;;;;;17.15;60.78;100401.59;10496449;28;20052;-81
2021/10/05 07:51:08;;;;;;;8.23;1.85;;;;;;;17.58;59.60;100376.13;10498239;28;20111;-81
2021/10/05 07:56:08;;;;;;;4.25;1.25;;;;;;;17.67;62.16;100384.69;10497612;28;20044;-81
2021/10/05 08:01:09;;;;;;;6.40;1.35;;;;;;;17.89;59.74;100349.06;10497919;28;20086;-82
2021/10/05 08:06:09;;;;;;;1.08;1.08;;;;;;;18.01;58.03;100319.59;10498657;28;20438;-81
2021/10/05 08:11:10;;;;;;;1.58;1.45;;;;;;;18.36;60.01;100324.53;10498916;28;20083;-81
2021/10/05 08:16:11;;;;;;;1.05;0.95;;;;;;;18.68;56.44;100323.66;10498259;28;20098;-81
2021/10/05 08:21:16;;;;;;;2.63;1.13;;;;;;;18.46;58.98;100240.72;10513445;28;20078;-81
2021/10/05 08:26:17;;;;;;;1.33;1.08;;;;;;;17.62;58.58;100325.25;10498185;28;20032;-80
2021/10/05 08:31:20;;;;;;;3.95;1.50;;;;;;;16.83;60.93;100306.53;10495635;28;20516;-80
2021/10/05 08:36:21;;;;;;;2.75;1.92;;;;;;;16.95;62.85;100312.69;10496950;28;20040;-80
2021/10/05 08:41:21;;;;;;;1.38;1.25;;;;;;;16.26;61.70;100254.84;10497247;28;20102;-80
2021/10/05 08:46:22;;;;;;;1.67;1.25;;;;;;;16.30;62.17;100212.28;10497078;28;20044;-80
2021/10/05 08:51:22;;;;;;;3.28;2.13;;;;;;;16.38;62.95;100246.56;10487054;28;20020;-82
2021/10/05 08:56:23;;;;;;;2.42;1.63;;;;;;;16.56;63.82;100295.47;10504736;28;20040;-82
2021/10/05 09:01:30;;;;;;;2.72;1.67;;;;;;;15.87;65.69;100240.34;10502161;28;20064;-82
2021/10/05 09:06:31;;;;;;;2.10;1.42;;;;;;;16.04;63.83;100209.19;10503692;28;20119;-82
2021/10/05 09:11:40;;;;;;;5.28;1.65;;;;;;;15.78;63.75;100160.75;10503055;28;20472;-82
2021/10/05 09:16:40;;;;;;;6.25;1.05;;;;;;;16.30;64.40;100261.47;10502838;28;20465;-82
2021/10/05 09:21:52;;;;;;;2.70;1.40;;;;;;;14.91;64.39;100022.97;10501040;28;20039;-82
2021/10/05 09:26:54;;;;;;;7.82;2.03;;;;;;;15.89;63.63;100169.91;10502681;28;20032;-82
2021/10/05 09:32:03;;;;;;;5.13;1.92;;;;;;;16.38;62.84;100209.13;10500602;28;20125;-81
2021/10/05 09:37:05;;;;;;;6.43;1.65;;;;;;;16.60;63.55;100170.88;10500996;28;20029;-82
2021/10/05 09:42:06;;;;;;;5.25;1.58;;;;;;;17.53;62.48;100252.03;10502681;28;20473;-81
2021/10/05 09:47:06;;;;;;;1.52;1.25;;;;;;;17.39;61.57;100257.94;10501207;28;20057;-82
2021/10/05 09:52:21;;;;;;;2.72;1.60;;;;;;;17.17;62.45;100200.53;10493850;28;20375;-82
2021/10/05 09:57:21;;;;;;;2.40;1.35;;;;;;;16.62;63.08;100190.56;10493499;28;20037;-81
2021/10/05 10:02:22;;;;;;;3.72;1.27;;;;;;;16.99;63.59;100200.88;10491521;28;20076;-82
2021/10/05 10:07:22;;;;;;;2.13;1.45;;;;;;;17.15;63.25;100219.09;10491866;28;20051;-82
2021/10/05 10:12:23;;;;;;;5.00;1.75;;;;;;;17.23;62.31;100209.63;10491571;28;20040;-82
2021/10/05 10:17:28;;;;;;;1.27;1.10;;;;;;;16.86;64.07;100154.78;10490823;28;20036;-82
2021/10/05 10:22:28;;;;;;;1.80;1.38;;;;;;;16.96;63.23;100202.22;10474930;28;20032;-81
2021/10/05 10:27:29;;;;;;;1.33;1.33;;;;;;;16.37;65.32;100157.44;10492239;28;20043;-82
2021/10/05 10:32:43;;;;;;;1.60;1.50;;;;;;;16.37;65.37;100158.31;10489501;28;20064;-82
2021/10/05 10:37:49;;;;;;;1.67;1.58;;;;;;;16.41;66.21;100181.31;10491077;28;20024;-81
2021/10/05 10:42:49;;;;;;;2.05;1.92;;;;;;;16.65;66.76;100197.44;10489954;28;20063;-82
2021/10/05 10:47:52;;;;;;;1.23;1.13;;;;;;;16.40;67.87;100195.19;10489823;28;20495;-82
2021/10/05 10:52:52;;;;;;;2.00;1.30;;;;;;;16.01;69.19;100176.09;10490563;28;20044;-83
2021/10/05 10:57:54;;;;;;;5.30;1.83;;;;;;;16.03;68.80;100163.03;10459382;28;20488;-83
2021/10/05 11:02:59;;;;;;;1.95;1.83;;;;;;;15.26;71.20;100163.69;10486030;28;20365;-84
2021/10/05 11:08:00;;;;;;;2.67;1.98;;;;;;;15.28;71.59;100147.91;10453783;28;20040;-84
2021/10/05 11:13:01;;;;;;;5.70;2.05;;;;;;;15.20;72.67;100172.88;10462845;28;20041;-84
2021/10/05 11:18:13;;;;;;;3.90;1.67;;;;;;;14.43;73.93;100106.00;10463512;28;20033;-85
2021/10/05 11:23:20;;;;;;;2.90;1.95;;;;;;;14.46;74.80;100094.63;10463009;28;20025;-85
2021/10/05 11:28:22;;;;;;;4.25;1.75;;;;;;;14.58;74.40;100095.44;10463631;28;20050;-86
2021/10/05 11:33:33;;;;;;;3.08;1.60;;;;;;;14.56;76.48;100173.03;10462881;28;20032;-85
2021/10/05 11:38:41;;;;;;;11.65;3.17;;;;;;;14.20;78.28;100145.03;10461195;28;20108;-84
2021/10/05 11:43:46;;;;;;;5.15;1.75;;;;;;;14.71;76.27;100170.59;10444414;28;20032;-84
2021/10/05 11:48:51;;;;;;;1.35;1.25;;;;;;;14.74;76.36;100144.75;10462179;28;20053;-81
2021/10/05 11:53:52;;;;;;;2.70;1.92;;;;;;;14.49;77.76;100148.63;10462086;28;20069;-82
2021/10/05 11:58:54;;;;;;;1.95;1.60;;;;;;;14.58;77.89;100152.66;10443487;28;20105;-81
2021/10/05 12:04:05;;;;;;;7.68;2.38;;;;;;;14.17;78.95;100121.81;10459453;28;20048;-83
2021/10/05 12:09:07;;;;;;;3.67;2.35;;;;;;;14.61;77.60;100133.09;10444537;28;20035;-81
2021/10/05 12:14:08;;;;;;;4.63;2.25;;;;;;;14.44;78.16;100129.44;10460726;28;20075;-81
2021/10/05 12:19:09;;;;;;;7.18;2.38;;;;;;;14.31;79.15;100124.25;10443468;28;20044;-80
2021/10/05 12:24:09;;;;;;;4.57;1.92;;;;;;;14.38;79.22;100133.13;10459952;28;20048;-82
2021/10/05 12:29:12;;;;;;;1.42;1.15;;;;;;;14.21;78.47;100089.47;10460263;28;20037;-82
2021/10/05 12:34:13;;;;;;;1.70;1.48;;;;;;;14.36;79.46;100129.81;10460915;28;20095;-82
2021/10/05 12:39:14;;;;;;;1.73;1.63;;;;;;;14.38;78.91;100125.78;10462519;28;20366;-81
2021/10/05 12:44:19;;;;;;;1.70;1.60;;;;;;;14.35;79.10;100122.72;10459854;28;20396;-82
2021/10/05 12:49:19;;;;;;;3.15;1.48;;;;;;;14.54;79.11;100107.88;10443912;28;20155;-81
2021/10/05 12:54:20;;;;;;;4.25;2.17;;;;;;;14.56;79.15;100113.09;10442310;28;20044;-80
2021/10/05 12:59:20;;;;;;;2.53;2.33;;;;;;;14.07;78.99;100020.88;10458628;28;20025;-81
2021/10/05 13:04:21;;;;;;;2.47;1.50;;;;;;;14.87;77.06;100088.06;10458837;28;20044;-80
2021/10/05 13:09:21;;;;;;;3.05;1.75;;;;;;;15.22;76.27;100124.34;10459772;28;20104;-81
2021/10/05 13:14:21;;;;;;;1.65;1.50;;;;;;;15.02;77.14;100136.53;10464033;28;20033;-82
2021/10/05 13:19:22;;;;;;;3.42;2.15;;;;;;;14.79;76.58;100047.56;10468392;28;20041;-82
2021/10/05 13:24:22;;;;;;;3.92;2.10;;;;;;;15.60;76.63;100120.84;10458643;28;20044;-82
2021/10/05 13:29:23;;;;;;;1.88;1.77;;;;;;;16.19;74.90;100131.28;10456523;28;20065;-82
2021/10/05 13:34:23;;;;;;;6.30;1.92;;;;;;;16.10;73.95;100095.38;10457888;28;20044;-80
2021/10/05 13:39:24;;;;;;;2.30;2.13;;;;;;;16.34;73.46;100114.28;10456970;28;20086;-82
2021/10/05 13:44:24;;;;;;;1.83;1.73;;;;;;;16.62;72.68;100102.28;10458425;28;20087;-81
2021/10/05 13:49:24;;;;;;;4.07;2.05;;;;;;;17.02;71.61;100117.47;10456946;28;20519;-80
2021/10/05 13:54:25;;;;;;;1.60;1.50;;;;;;;17.01;71.63;100102.16;10457776;28;20075;-81
2021/10/05 13:59:25;;;;;;;1.77;1.67;;;;;;;16.70;70.51;100031.56;10457209;28;20036;-81
2021/10/05 14:04:26;;;;;;;7.75;2.25;;;;;;;16.99;70.37;100082.44;10457226;28;20389;-80
2021/10/05 14:09:26;;;;;;;1.40;1.27;;;;;;;17.53;70.15;100142.53;10457025;28;20037;-80
2021/10/05 14:14:26;;;;;;;4.03;1.80;;;;;;;18.23;70.62;100116.69;10457034;28;20366;-81
2021/10/05 14:19:27;;;;;;;2.60;2.13;;;;;;;18.79;69.64;100097.72;10457184;28;20052;-81
2021/10/05 14:24:27;;;;;;;1.63;1.50;;;;;;;18.94;66.07;100140.81;10455319;28;20443;-81
2021/10/05 14:29:28;;;;;;;1.60;1.50;;;;;;;18.63;66.35;100144.53;10456874;28;20087;-81
2021/10/05 14:34:28;;;;;;;5.85;1.77;;;;;;;17.95;66.90;100137.09;10457097;28;20041;-80
2021/10/05 14:39:28;;;;;;;1.55;1.45;;;;;;;17.60;68.41;100154.09;10463999;28;20117;-81
2021/10/05 14:44:29;;;;;;;11.95;2.50;;;;;;;17.48;67.45;100076.78;10464278;28;20532;-81
2021/10/05 14:49:29;;;;;;;3.42;1.55;;;;;;;18.18;63.56;100157.78;10462942;28;20139;-81
2021/10/05 14:54:30;;;;;;;6.60;1.67;;;;;;;17.93;63.40;100160.38;10465042;28;20045;-82
2021/10/05 14:59:30;;;;;;;5.72;2.08;;;;;;;17.73;63.88;100137.19;10463359;28;20029;-82
2021/10/05 15:04:31;;;;;;;2.45;1.00;;;;;;;17.53;64.00;100167.19;10464926;28;20044;-81
2021/10/05 15:09:31;;;;;;;6.80;1.92;;;;;;;17.12;62.91;100158.59;10466516;28;20036;-81
2021/10/05 15:14:31;;;;;;;8.65;2.47;;;;;;;17.17;62.70;100183.28;10467874;28;20045;-82
2021/10/05 15:19:32;;;;;;;2.40;1.77;;;;;;;16.75;62.66;100159.31;10470314;28;20041;-81
2021/10/05 15:24:33;;;;;;;5.70;1.95;;;;;;;16.53;63.29;100164.78;10472294;28;20033;-82
2021/10/05 15:29:33;;;;;;;3.05;1.67;;;;;;;16.45;64.07;100196.09;10480341;28;20036;-80
2021/10/05 15:34:34;;;;;;;1.83;1.65;;;;;;;16.10;63.49;100133.63;10487600;28;20115;-82
2021/10/05 15:39:34;;;;;;;1.65;1.55;;;;;;;16.36;64.00;100199.53;10463837;28;20044;-82
2021/10/05 15:44:35;;;;;;;5.32;1.52;;;;;;;15.99;64.18;100159.97;10467988;28;20390;-82
2021/10/05 15:49:35;;;;;;;2.65;1.67;;;;;;;16.20;64.66;100182.09;10462111;28;20053;-82
2021/10/05 15:54:35;;;;;;;7.00;2.67;;;;;;;15.98;65.44;100217.56;10462500;28;20130;-82
2021/10/05 15:59:36;;;;;;;4.43;1.52;;;;;;;15.15;65.35;100107.31;10459557;28;20094;-82
2021/10/05 16:04:36;;;;;;;5.45;1.98;;;;;;;15.90;65.55;100207.06;10443690;28;20059;-82
2021/10/05 16:09:37;;;;;;;5.28;1.90;;;;;;;16.03;64.24;100236.78;10460887;28;20116;-82
2021/10/05 16:14:37;;;;;;;2.17;1.67;;;;;;;16.22;64.35;100238.16;10461507;28;20041;-82
2021/10/05 16:19:37;;;;;;;10.40;2.45;;;;;;;16.23;63.44;100241.69;10460728;28;20041;-82
2021/10/05 16:24:38;;;;;;;9.73;2.08;;;;;;;15.29;65.56;100135.94;10460533;28;20056;-82
2021/10/05 16:29:38;;;;;;;3.40;2.25;;;;;;;15.57;64.20;100203.22;10459380;28;20033;-81
2021/10/05 16:34:41;;;;;;;3.92;2.55;;;;;;;15.88;63.96;100263.81;10458832;28;20488;-82
2021/10/05 16:39:42;;;;;;;1.42;1.33;;;;;;;15.70;63.66;100262.19;10459019;28;20158;-82
2021/10/05 16:44:42;;;;;;;21.48;2.60;;;;;;;15.68;65.40;100253.41;10459059;28;20120;-82
2021/10/05 16:49:42;;;;;;;9.07;2.08;;;;;;;15.91;65.78;100255.97;10458782;28;20454;-82
2021/10/05 16:54:43;;;;;;;4.95;1.92;;;;;;;15.92;65.45;100257.63;10458118;28;20048;-82
2021/10/05 16:59:43;;;;;;;10.23;2.67;;;;;;;15.95;64.62;100259.88;10458631;28;20468;-82
2021/10/05 17:04:43;;;;;;;6.72;2.17;;;;;;;15.08;64.79;100146.47;10473955;28;20033;-82
2021/10/05 17:09:44;;;;;;;7.43;1.27;;;;;;;15.38;64.49;100243.59;10458404;28;20025;-82
2021/10/05 17:14:44;;;;;;;4.45;1.70;;;;;;;15.44;65.79;100280.78;10458035;28;20068;-82
2021/10/05 17:19:45;;;;;;;5.07;1.30;;;;;;;15.54;65.22;100291.91;10458344;28;20556;-82
2021/10/05 17:24:45;;;;;;;1.92;1.63;;;;;;;15.45;64.53;100282.44;10457093;28;20040;-82
2021/10/05 17:29:46;;;;;;;1.88;1.25;;;;;;;15.32;65.00;100291.75;10457296;28;20033;-82
2021/10/05 17:34:46;;;;;;;1.23;1.13;;;;;;;15.34;64.36;100286.03;10458108;28;20542;-83
2021/10/05 17:39:46;;;;;;;3.67;1.55;;;;;;;15.33;65.72;100295.31;10458165;28;20504;-82
2021/10/05 17:44:47;;;;;;;2.55;1.58;;;;;;;15.13;66.03;100284.03;10458008;28;20468;-82
2021/10/05 17:49:50;;;;;;;2.33;1.30;;;;;;;14.59;66.04;100178.00;10458464;28;20064;-82
2021/10/05 17:54:50;;;;;;;6.18;1.67;;;;;;;15.29;66.74;100308.59;10457983;28;20043;-82
2021/10/05 17:59:51;;;;;;;4.78;1.65;;;;;;;15.27;65.46;100321.66;10456200;28;20390;-82
2021/10/05 18:04:51;;;;;;;1.95;1.33;;;;;;;14.98;67.05;100309.88;10457729;28;20040;-82
2021/10/05 18:09:52;;;;;;;2.08;1.10;;;;;;;14.81;66.62;100328.91;10458617;28;20361;-82
2021/10/05 18:14:53;;;;;;;7.07;1.52;;;;;;;14.80;67.84;100335.41;10464585;28;20025;-82
2021/10/05 18:19:53;;;;;;;4.47;1.45;;;;;;;14.81;68.08;100345.25;10465770;28;20128;-82
2021/10/05 18:24:54;;;;;;;7.90;1.15;;;;;;;14.84;67.75;100350.22;10465578;28;20033;-82
2021/10/05 18:29:56;;;;;;;7.65;1.48;;;;;;;14.04;67.59;100222.81;10464550;28;20033;-82
2021/10/05 18:34:58;;;;;;;7.35;2.33;;;;;;;14.67;68.42;100371.06;10464892;28;20055;-83
2021/10/05 18:39:59;;;;;;;12.55;2.28;;;;;;;13.60;69.58;100248.69;10447686;28;20060;-80
2021/10/05 18:45:01;;;;;;;6.80;2.42;;;;;;;14.14;70.35;100351.00;10465166;28;20071;-80
2021/10/05 18:50:01;;;;;;;12.75;2.08;;;;;;;14.34;69.65;100375.19;10464329;28;20431;-79
2021/10/05 18:55:01;;;;;;;9.70;2.05;;;;;;;14.29;69.98;100372.31;10463144;28;20049;-82
2021/10/05 19:00:04;;;;;;;4.60;2.45;;;;;;;14.16;70.20;100384.25;10457799;28;20061;-80
2021/10/05 19:05:05;;;;;;;2.03;1.83;;;;;;;14.22;69.89;100378.97;10460611;28;20036;-82
2021/10/05 19:10:09;;;;;;;3.28;1.88;;;;;;;14.28;70.59;100386.19;10461438;28;20041;-82
2021/10/05 19:15:09;;;;;;;5.18;2.78;;;;;;;14.41;70.76;100392.25;10462615;28;20037;-81
2021/10/05 19:20:10;;;;;;;2.22;2.03;;;;;;;14.27;70.43;100352.69;10460794;28;20041;-82
2021/10/05 19:25:10;;;;;;;6.22;2.00;;;;;;;14.40;69.64;100396.03;10456280;28;20458;-81
2021/10/05 19:30:13;;;;;;;10.52;2.83;;;;;;;13.76;69.16;100313.31;10459567;28;20041;-81
2021/10/05 19:35:15;;;;;;;7.85;2.08;;;;;;;14.13;68.93;100395.63;10460354;28;20481;-81
2021/10/05 19:40:16;;;;;;;9.23;3.08;;;;;;;14.14;68.73;100397.31;10460277;28;20044;-82
2021/10/05 19:45:16;;;;;;;9.45;2.55;;;;;;;14.13;69.58;100392.06;10461344;28;20047;-83
2021/10/05 19:50:17;;;;;;;3.25;2.13;;;;;;;14.05;68.13;100354.31;10461452;28;20053;-82
2021/10/05 19:55:18;;;;;;;10.50;2.58;;;;;;;14.42;68.12;100436.66;10462614;28;20075;-81
2021/10/05 20:00:22;;;;;;;2.22;1.55;;;;;;;14.45;67.51;100441.63;10461443;28;20025;-82
2021/10/05 20:05:25;;;;;;;7.45;1.80;;;;;;;14.68;66.26;100435.44;10460287;28;20036;-81
2021/10/05 20:10:26;;;;;;;6.80;2.78;;;;;;;14.64;67.72;100439.69;10461097;28;20055;-82
2021/10/05 20:15:27;;;;;;;1.80;1.58;;;;;;;14.48;66.30;100438.44;10461930;28;20048;-81
2021/10/05 20:20:29;;;;;;;2.20;2.00;;;;;;;14.34;66.89;100450.63;10427690;28;20128;-80
2021/10/05 20:25:29;;;;;;;2.95;1.45;;;;;;;14.27;67.33;100460.81;10460349;28;20468;-82
2021/10/05 20:30:30;;;;;;;18.02;2.05;;;;;;;14.27;66.86;100455.34;10460106;28;20041;-81
2021/10/05 20:35:31;;;;;;;15.35;2.50;;;;;;;14.32;66.97;100460.91;10459291;28;20043;-81
2021/10/05 20:40:31;;;;;;;3.85;1.88;;;;;;;14.33;66.40;100460.69;10460131;28;20489;-80
2021/10/05 20:45:32;;;;;;;10.30;2.03;;;;;;;14.25;67.06;100441.97;10459902;28;20033;-80
2021/10/05 20:50:32;;;;;;;4.45;1.98;;;;;;;14.56;66.99;100462.66;10459069;28;20056;-80
2021/10/05 20:55:33;;;;;;;4.03;1.83;;;;;;;14.24;67.18;100413.06;10459815;28;20040;-81
2021/10/05 21:00:34;;;;;;;9.95;2.05;;;;;;;14.64;66.81;100470.50;10458541;28;20484;-81
2021/10/05 21:05:34;;;;;;;2.85;2.15;;;;;;;14.24;67.21;100440.31;10458770;28;20049;-80
2021/10/05 21:10:35;;;;;;;5.50;1.60;;;;;;;14.28;68.90;100462.47;10459908;28;20041;-81
2021/10/05 21:15:36;;;;;;;7.95;1.80;;;;;;;14.22;68.22;100447.88;10458219;28;20033;-82
2021/10/05 21:20:36;;;;;;;7.05;3.28;;;;;;;14.36;68.83;100481.19;10458770;28;20369;-82
2021/10/05 21:25:37;;;;;;;5.68;1.92;;;;;;;13.87;70.70;100480.41;10458304;28;20037;-83
2021/10/05 21:30:37;;;;;;;13.43;2.65;;;;;;;13.60;71.47;100456.25;10457918;28;20182;-82
2021/10/05 21:35:37;;;;;;;7.15;2.22;;;;;;;13.34;72.78;100510.97;10458166;28;20393;-83
2021/10/05 21:40:38;;;;;;;10.38;2.28;;;;;;;13.24;73.17;100533.19;10459797;28;20033;-83
2021/10/05 21:45:38;;;;;;;2.58;1.60;;;;;;;13.44;73.46;100514.00;10457463;28;20036;-82
2021/10/05 21:50:39;;;;;;;9.35;2.25;;;;;;;13.53;73.43;100519.97;10457924;28;20052;-83
2021/10/05 21:55:39;;;;;;;3.35;1.80;;;;;;;13.64;72.61;100527.38;10457192;28;20032;-82
2021/10/05 22:00:39;;;;;;;10.55;2.42;;;;;;;13.07;73.12;100451.38;10458224;28;20116;-82
2021/10/05 22:05:40;;;;;;;5.60;2.10;;;;;;;12.96;73.82;100452.97;10460026;28;20033;-82
2021/10/05 22:10:40;;;;;;;14.25;2.08;;;;;;;13.50;73.54;100513.09;10460078;28;20056;-81
2021/10/05 22:15:41;;;;;;;6.45;2.45;;;;;;;13.66;72.75;100519.84;10460126;28;20065;-82
2021/10/05 22:20:41;;;;;;;5.72;2.63;;;;;;;13.44;72.35;100495.78;10463609;28;20082;-81
2021/10/05 22:25:42;;;;;;;11.07;2.47;;;;;;;13.68;70.79;100520.41;10486737;28;20416;-80
2021/10/05 22:30:42;;;;;;;7.05;1.98;;;;;;;13.48;71.75;100539.69;10479173;28;20037;-81
2021/10/05 22:35:43;;;;;;;5.93;1.75;;;;;;;13.24;72.85;100539.50;10458723;28;20130;-82
2021/10/05 22:40:43;;;;;;;4.65;2.85;;;;;;;13.39;73.09;100530.16;10463492;28;20064;-81
2021/10/05 22:45:43;;;;;;;3.45;2.08;;;;;;;13.03;73.79;100508.09;10459527;28;20048;-82
2021/10/05 22:50:44;;;;;;;10.85;2.85;;;;;;;13.09;74.05;100547.16;10456211;28;20080;-82
2021/10/05 22:55:45;;;;;;;2.15;1.80;;;;;;;13.21;73.22;100542.66;10456511;28;20098;-81
2021/10/05 23:00:45;;;;;;;8.38;2.47;;;;;;;13.00;73.24;100492.22;10464594;28;20098;-82